sensor_id;sensor_type;location;lat;lon;timestamp;P1;durP1;ratioP1;P2;durP2;ratioP2
48791;SDS011;34587;48.816;9.420;2024-01-30T00:00:28;13.45;;;7.30;;
48791;SDS011;34587;48.816;9.420;2024-01-30T00:02:54;19.48;;;7.18;;
48791;SDS011;34587;48.816;9.420;2024-01-30T00:05:19;18.70;;;7.15;;
48791;SDS011;34587;48.816;9.420;2024-01-30T00:07:44;14.98;;;7.45;;
48791;SDS011;34587;48.816;9.420;2024-01-30T00:10:10;16.73;;;6.88;;
48791;SDS011;34587;48.816;9.420;2024-01-30T00:12:35;15.02;;;6.72;;
48791;SDS011;34587;48.816;9.420;2024-01-30T00:15:00;16.50;;;8.32;;
48791;SDS011;34587;48.816;9.420;2024-01-30T00:17:26;18.90;;;7.28;;
48791;SDS011;34587;48.816;9.420;2024-01-30T00:19:51;17.98;;;6.53;;
48791;SDS011;34587;48.816;9.420;2024-01-30T00:22:17;19.50;;;7.28;;
48791;SDS011;34587;48.816;9.420;2024-01-30T00:24:42;12.20;;;6.50;;
48791;SDS011;34587;48.816;9.420;2024-01-30T00:27:08;16.23;;;7.78;;
48791;SDS011;34587;48.816;9.420;2024-01-30T00:29:33;12.90;;;7.22;;
48791;SDS011;34587;48.816;9.420;2024-01-30T00:31:59;18.10;;;8.20;;
48791;SDS011;34587;48.816;9.420;2024-01-30T00:34:25;11.95;;;6.50;;
48791;SDS011;34587;48.816;9.420;2024-01-30T00:36:50;16.73;;;7.03;;
48791;SDS011;34587;48.816;9.420;2024-01-30T00:39:15;13.88;;;6.13;;
48791;SDS011;34587;48.816;9.420;2024-01-30T00:41:41;13.10;;;6.70;;
48791;SDS011;34587;48.816;9.420;2024-01-30T00:44:06;13.20;;;5.90;;
48791;SDS011;34587;48.816;9.420;2024-01-30T00:46:31;11.50;;;7.18;;
48791;SDS011;34587;48.816;9.420;2024-01-30T00:48:57;15.13;;;7.47;;
48791;SDS011;34587;48.816;9.420;2024-01-30T00:51:22;10.57;;;6.28;;
48791;SDS011;34587;48.816;9.420;2024-01-30T00:53:47;13.82;;;6.65;;
48791;SDS011;34587;48.816;9.420;2024-01-30T00:56:13;17.15;;;6.32;;
48791;SDS011;34587;48.816;9.420;2024-01-30T00:58:38;9.20;;;5.60;;
48791;SDS011;34587;48.816;9.420;2024-01-30T05:17:05;8.88;;;5.15;;
48791;SDS011;34587;48.816;9.420;2024-01-30T05:19:30;8.45;;;5.15;;
48791;SDS011;34587;48.816;9.420;2024-01-30T05:21:55;17.90;;;4.65;;
48791;SDS011;34587;48.816;9.420;2024-01-30T05:24:21;6.88;;;5.10;;
48791;SDS011;34587;48.816;9.420;2024-01-30T05:26:46;10.45;;;4.70;;
48791;SDS011;34587;48.816;9.420;2024-01-30T05:29:13;11.32;;;5.18;;
48791;SDS011;34587;48.816;9.420;2024-01-30T05:31:38;10.82;;;4.90;;
48791;SDS011;34587;48.816;9.420;2024-01-30T05:34:03;6.78;;;4.22;;
48791;SDS011;34587;48.816;9.420;2024-01-30T05:36:29;7.63;;;4.97;;
48791;SDS011;34587;48.816;9.420;2024-01-30T05:38:54;7.22;;;4.15;;
48791;SDS011;34587;48.816;9.420;2024-01-30T05:41:19;8.43;;;4.45;;
48791;SDS011;34587;48.816;9.420;2024-01-30T05:43:46;9.57;;;5.50;;
48791;SDS011;34587;48.816;9.420;2024-01-30T05:46:11;12.63;;;4.85;;
48791;SDS011;34587;48.816;9.420;2024-01-30T05:48:36;11.35;;;4.88;;
48791;SDS011;34587;48.816;9.420;2024-01-30T05:51:02;13.13;;;5.30;;
48791;SDS011;34587;48.816;9.420;2024-01-30T05:53:28;15.00;;;5.03;;
48791;SDS011;34587;48.816;9.420;2024-01-30T05:55:54;7.35;;;4.35;;
48791;SDS011;34587;48.816;9.420;2024-01-30T05:58:19;10.85;;;5.38;;
48791;SDS011;34587;48.816;9.420;2024-01-30T06:00:44;8.40;;;4.88;;
48791;SDS011;34587;48.816;9.420;2024-01-30T06:03:09;6.03;;;4.65;;
48791;SDS011;34587;48.816;9.420;2024-01-30T06:05:35;7.78;;;4.57;;
48791;SDS011;34587;48.816;9.420;2024-01-30T06:08:00;11.65;;;5.93;;
48791;SDS011;34587;48.816;9.420;2024-01-30T06:10:26;8.95;;;5.47;;
48791;SDS011;34587;48.816;9.420;2024-01-30T06:12:52;6.60;;;4.40;;
48791;SDS011;34587;48.816;9.420;2024-01-30T06:15:18;13.18;;;4.20;;
48791;SDS011;34587;48.816;9.420;2024-01-30T06:17:43;10.05;;;4.82;;
48791;SDS011;34587;48.816;9.420;2024-01-30T06:20:09;8.85;;;4.97;;
48791;SDS011;34587;48.816;9.420;2024-01-30T06:22:35;11.55;;;5.80;;
48791;SDS011;34587;48.816;9.420;2024-01-30T06:25:00;14.25;;;5.60;;
48791;SDS011;34587;48.816;9.420;2024-01-30T06:27:25;10.25;;;5.82;;
48791;SDS011;34587;48.816;9.420;2024-01-30T06:29:51;15.00;;;6.90;;
48791;SDS011;34587;48.816;9.420;2024-01-30T06:32:16;9.75;;;5.28;;
48791;SDS011;34587;48.816;9.420;2024-01-30T06:34:41;15.68;;;7.30;;
48791;SDS011;34587;48.816;9.420;2024-01-30T06:37:09;13.07;;;6.65;;
48791;SDS011;34587;48.816;9.420;2024-01-30T06:39:34;11.15;;;6.38;;
48791;SDS011;34587;48.816;9.420;2024-01-30T06:41:59;12.45;;;5.60;;
48791;SDS011;34587;48.816;9.420;2024-01-30T06:44:24;19.90;;;5.75;;
48791;SDS011;34587;48.816;9.420;2024-01-30T06:46:50;9.27;;;5.50;;
48791;SDS011;34587;48.816;9.420;2024-01-30T06:49:15;8.82;;;5.25;;
48791;SDS011;34587;48.816;9.420;2024-01-30T06:51:40;8.38;;;5.30;;
48791;SDS011;34587;48.816;9.420;2024-01-30T06:54:05;11.98;;;6.38;;
48791;SDS011;34587;48.816;9.420;2024-01-30T06:56:31;13.38;;;5.35;;
48791;SDS011;34587;48.816;9.420;2024-01-30T06:58:56;9.68;;;5.70;;
48791;SDS011;34587;48.816;9.420;2024-01-30T07:01:27;8.15;;;5.25;;
48791;SDS011;34587;48.816;9.420;2024-01-30T07:03:54;11.13;;;5.82;;
48791;SDS011;34587;48.816;9.420;2024-01-30T07:06:19;11.55;;;6.10;;
48791;SDS011;34587;48.816;9.420;2024-01-30T07:08:45;11.52;;;6.38;;
48791;SDS011;34587;48.816;9.420;2024-01-30T07:11:10;9.18;;;5.55;;
48791;SDS011;34587;48.816;9.420;2024-01-30T07:13:37;10.25;;;6.07;;
48791;SDS011;34587;48.816;9.420;2024-01-30T07:16:02;14.38;;;6.00;;
48791;SDS011;34587;48.816;9.420;2024-01-30T07:18:28;11.15;;;5.00;;
48791;SDS011;34587;48.816;9.420;2024-01-30T07:20:53;6.60;;;4.63;;
48791;SDS011;34587;48.816;9.420;2024-01-30T07:23:19;9.95;;;5.70;;
48791;SDS011;34587;48.816;9.420;2024-01-30T07:25:44;9.20;;;5.45;;
48791;SDS011;34587;48.816;9.420;2024-01-30T07:28:15;9.48;;;5.50;;
48791;SDS011;34587;48.816;9.420;2024-01-30T07:30:43;11.73;;;5.68;;
48791;SDS011;34587;48.816;9.420;2024-01-30T07:33:09;10.15;;;6.22;;
48791;SDS011;34587;48.816;9.420;2024-01-30T07:35:35;10.02;;;5.85;;
48791;SDS011;34587;48.816;9.420;2024-01-30T07:38:00;10.38;;;6.15;;
48791;SDS011;34587;48.816;9.420;2024-01-30T07:40:26;12.35;;;5.97;;
48791;SDS011;34587;48.816;9.420;2024-01-30T07:42:52;10.98;;;6.55;;
48791;SDS011;34587;48.816;9.420;2024-01-30T07:45:18;12.43;;;6.00;;
48791;SDS011;34587;48.816;9.420;2024-01-30T07:47:47;15.00;;;7.50;;
48791;SDS011;34587;48.816;9.420;2024-01-30T07:50:16;13.57;;;7.03;;
48791;SDS011;34587;48.816;9.420;2024-01-30T07:52:42;12.70;;;5.95;;
48791;SDS011;34587;48.816;9.420;2024-01-30T07:55:08;10.93;;;6.43;;
48791;SDS011;34587;48.816;9.420;2024-01-30T07:57:33;8.73;;;5.40;;
48791;SDS011;34587;48.816;9.420;2024-01-30T07:59:59;10.68;;;7.10;;
48791;SDS011;34587;48.816;9.420;2024-01-30T08:02:24;14.68;;;7.10;;
48791;SDS011;34587;48.816;9.420;2024-01-30T08:04:49;10.23;;;6.22;;
48791;SDS011;34587;48.816;9.420;2024-01-30T08:07:15;7.80;;;5.53;;
48791;SDS011;34587;48.816;9.420;2024-01-30T08:09:40;13.65;;;5.22;;
48791;SDS011;34587;48.816;9.420;2024-01-30T08:12:06;10.95;;;5.60;;
48791;SDS011;34587;48.816;9.420;2024-01-30T08:14:31;17.13;;;6.53;;
48791;SDS011;34587;48.816;9.420;2024-01-30T08:16:56;24.67;;;8.32;;
48791;SDS011;34587;48.816;9.420;2024-01-30T08:19:22;23.77;;;7.53;;
48791;SDS011;34587;48.816;9.420;2024-01-30T08:21:47;23.38;;;8.88;;
48791;SDS011;34587;48.816;9.420;2024-01-30T08:24:12;19.27;;;7.63;;
48791;SDS011;34587;48.816;9.420;2024-01-30T08:26:38;12.18;;;5.53;;
48791;SDS011;34587;48.816;9.420;2024-01-30T08:29:03;9.55;;;6.28;;
48791;SDS011;34587;48.816;9.420;2024-01-30T08:31:29;12.50;;;6.70;;
48791;SDS011;34587;48.816;9.420;2024-01-30T08:33:54;13.93;;;6.97;;
48791;SDS011;34587;48.816;9.420;2024-01-30T08:36:19;13.18;;;6.55;;
48791;SDS011;34587;48.816;9.420;2024-01-30T08:38:45;8.68;;;5.55;;
48791;SDS011;34587;48.816;9.420;2024-01-30T08:41:10;11.40;;;6.15;;
48791;SDS011;34587;48.816;9.420;2024-01-30T08:43:35;20.83;;;7.18;;
48791;SDS011;34587;48.816;9.420;2024-01-30T08:46:01;13.32;;;6.03;;
48791;SDS011;34587;48.816;9.420;2024-01-30T08:48:27;14.60;;;7.43;;
48791;SDS011;34587;48.816;9.420;2024-01-30T08:50:52;10.43;;;5.90;;
48791;SDS011;34587;48.816;9.420;2024-01-30T08:53:18;10.23;;;4.90;;
48791;SDS011;34587;48.816;9.420;2024-01-30T08:55:43;15.50;;;6.85;;
48791;SDS011;34587;48.816;9.420;2024-01-30T08:58:09;11.63;;;6.35;;
48791;SDS011;34587;48.816;9.420;2024-01-30T09:00:34;14.02;;;6.78;;
48791;SDS011;34587;48.816;9.420;2024-01-30T09:03:00;12.80;;;6.40;;
48791;SDS011;34587;48.816;9.420;2024-01-30T09:05:25;19.27;;;6.60;;
48791;SDS011;34587;48.816;9.420;2024-01-30T09:07:50;11.20;;;5.90;;
48791;SDS011;34587;48.816;9.420;2024-01-30T09:10:16;22.50;;;6.65;;
48791;SDS011;34587;48.816;9.420;2024-01-30T09:12:41;10.70;;;5.90;;
48791;SDS011;34587;48.816;9.420;2024-01-30T09:15:06;14.02;;;6.38;;
48791;SDS011;34587;48.816;9.420;2024-01-30T09:17:32;11.10;;;6.55;;
48791;SDS011;34587;48.816;9.420;2024-01-30T09:19:58;18.90;;;6.03;;
48791;SDS011;34587;48.816;9.420;2024-01-30T09:22:23;11.80;;;6.05;;
48791;SDS011;34587;48.816;9.420;2024-01-30T09:24:49;11.85;;;5.93;;
48791;SDS011;34587;48.816;9.420;2024-01-30T09:27:14;15.80;;;7.35;;
48791;SDS011;34587;48.816;9.420;2024-01-30T09:29:39;13.02;;;6.95;;
48791;SDS011;34587;48.816;9.420;2024-01-30T09:32:05;16.13;;;6.18;;
48791;SDS011;34587;48.816;9.420;2024-01-30T09:34:31;14.35;;;7.18;;
48791;SDS011;34587;48.816;9.420;2024-01-30T09:36:56;18.20;;;6.40;;
48791;SDS011;34587;48.816;9.420;2024-01-30T09:39:23;13.48;;;5.38;;
48791;SDS011;34587;48.816;9.420;2024-01-30T09:41:49;13.63;;;6.22;;
48791;SDS011;34587;48.816;9.420;2024-01-30T09:44:20;12.18;;;6.35;;
48791;SDS011;34587;48.816;9.420;2024-01-30T09:46:48;9.52;;;6.00;;
48791;SDS011;34587;48.816;9.420;2024-01-30T09:49:13;15.82;;;5.75;;
48791;SDS011;34587;48.816;9.420;2024-01-30T09:51:39;13.23;;;5.75;;
48791;SDS011;34587;48.816;9.420;2024-01-30T09:54:05;16.63;;;5.45;;
48791;SDS011;34587;48.816;9.420;2024-01-30T09:56:33;17.05;;;6.00;;
48791;SDS011;34587;48.816;9.420;2024-01-30T09:58:58;11.45;;;5.38;;
48791;SDS011;34587;48.816;9.420;2024-01-30T10:01:23;11.88;;;5.85;;
48791;SDS011;34587;48.816;9.420;2024-01-30T10:03:50;9.77;;;5.97;;
48791;SDS011;34587;48.816;9.420;2024-01-30T10:06:17;10.50;;;5.40;;
48791;SDS011;34587;48.816;9.420;2024-01-30T10:08:43;10.77;;;5.28;;
48791;SDS011;34587;48.816;9.420;2024-01-30T10:11:09;9.45;;;6.22;;
48791;SDS011;34587;48.816;9.420;2024-01-30T10:13:34;8.13;;;5.88;;
48791;SDS011;34587;48.816;9.420;2024-01-30T10:16:00;14.40;;;6.45;;
48791;SDS011;34587;48.816;9.420;2024-01-30T10:18:27;13.68;;;6.30;;
48791;SDS011;34587;48.816;9.420;2024-01-30T10:20:53;15.38;;;5.72;;
48791;SDS011;34587;48.816;9.420;2024-01-30T10:23:19;10.32;;;6.45;;
48791;SDS011;34587;48.816;9.420;2024-01-30T10:25:45;14.68;;;6.50;;
48791;SDS011;34587;48.816;9.420;2024-01-30T10:28:11;11.88;;;5.65;;
48791;SDS011;34587;48.816;9.420;2024-01-30T10:30:36;12.50;;;6.78;;
48791;SDS011;34587;48.816;9.420;2024-01-30T10:33:02;15.95;;;6.60;;
48791;SDS011;34587;48.816;9.420;2024-01-30T10:35:27;10.15;;;6.05;;
48791;SDS011;34587;48.816;9.420;2024-01-30T10:37:52;20.80;;;7.00;;
48791;SDS011;34587;48.816;9.420;2024-01-30T10:40:22;14.27;;;6.70;;
48791;SDS011;34587;48.816;9.420;2024-01-30T10:42:53;20.63;;;7.45;;
48791;SDS011;34587;48.816;9.420;2024-01-30T10:45:20;14.43;;;5.82;;
48791;SDS011;34587;48.816;9.420;2024-01-30T10:47:52;10.98;;;6.53;;
48791;SDS011;34587;48.816;9.420;2024-01-30T10:50:19;10.15;;;5.82;;
48791;SDS011;34587;48.816;9.420;2024-01-30T10:52:45;11.35;;;5.43;;
48791;SDS011;34587;48.816;9.420;2024-01-30T10:55:12;15.75;;;5.88;;
48791;SDS011;34587;48.816;9.420;2024-01-30T10:57:40;14.80;;;6.53;;
48791;SDS011;34587;48.816;9.420;2024-01-30T11:00:09;10.90;;;5.75;;
48791;SDS011;34587;48.816;9.420;2024-01-30T11:02:40;10.50;;;6.00;;
48791;SDS011;34587;48.816;9.420;2024-01-30T11:05:09;9.52;;;5.95;;
48791;SDS011;34587;48.816;9.420;2024-01-30T11:07:35;9.70;;;5.70;;
48791;SDS011;34587;48.816;9.420;2024-01-30T11:10:03;11.73;;;5.95;;
48791;SDS011;34587;48.816;9.420;2024-01-30T11:12:30;17.63;;;6.70;;
48791;SDS011;34587;48.816;9.420;2024-01-30T11:15:06;13.32;;;5.80;;
48791;SDS011;34587;48.816;9.420;2024-01-30T11:17:50;16.35;;;6.60;;
48791;SDS011;34587;48.816;9.420;2024-01-30T11:20:19;10.75;;;5.47;;
48791;SDS011;34587;48.816;9.420;2024-01-30T11:22:45;12.70;;;6.10;;
48791;SDS011;34587;48.816;9.420;2024-01-30T11:25:14;13.40;;;6.13;;
48791;SDS011;34587;48.816;9.420;2024-01-30T11:27:41;10.93;;;5.97;;
48791;SDS011;34587;48.816;9.420;2024-01-30T11:30:07;11.43;;;5.45;;
48791;SDS011;34587;48.816;9.420;2024-01-30T11:32:33;15.23;;;5.60;;
48791;SDS011;34587;48.816;9.420;2024-01-30T11:34:58;16.33;;;6.13;;
48791;SDS011;34587;48.816;9.420;2024-01-30T11:37:24;12.95;;;6.63;;
48791;SDS011;34587;48.816;9.420;2024-01-30T11:39:52;22.77;;;6.60;;
48791;SDS011;34587;48.816;9.420;2024-01-30T11:42:19;12.15;;;6.15;;
48791;SDS011;34587;48.816;9.420;2024-01-30T11:44:47;18.10;;;6.00;;
48791;SDS011;34587;48.816;9.420;2024-01-30T11:47:13;9.40;;;5.88;;
48791;SDS011;34587;48.816;9.420;2024-01-30T11:49:39;11.95;;;6.30;;
48791;SDS011;34587;48.816;9.420;2024-01-30T11:52:05;17.30;;;7.28;;
48791;SDS011;34587;48.816;9.420;2024-01-30T11:54:30;11.15;;;6.50;;
48791;SDS011;34587;48.816;9.420;2024-01-30T11:56:55;17.33;;;6.40;;
48791;SDS011;34587;48.816;9.420;2024-01-30T11:59:21;12.90;;;6.32;;
48791;SDS011;34587;48.816;9.420;2024-01-30T12:01:46;19.92;;;6.80;;
48791;SDS011;34587;48.816;9.420;2024-01-30T12:04:12;17.85;;;6.93;;
48791;SDS011;34587;48.816;9.420;2024-01-30T12:06:37;16.13;;;6.25;;
48791;SDS011;34587;48.816;9.420;2024-01-30T12:09:04;13.45;;;6.40;;
48791;SDS011;34587;48.816;9.420;2024-01-30T12:11:29;10.45;;;5.95;;
48791;SDS011;34587;48.816;9.420;2024-01-30T12:13:55;12.48;;;5.82;;
48791;SDS011;34587;48.816;9.420;2024-01-30T12:16:21;13.27;;;5.53;;
48791;SDS011;34587;48.816;9.420;2024-01-30T12:18:46;10.82;;;6.32;;
48791;SDS011;34587;48.816;9.420;2024-01-30T12:21:12;20.60;;;7.35;;
48791;SDS011;34587;48.816;9.420;2024-01-30T12:23:41;13.98;;;7.35;;
48791;SDS011;34587;48.816;9.420;2024-01-30T12:26:06;14.43;;;6.88;;
48791;SDS011;34587;48.816;9.420;2024-01-30T12:28:32;38.33;;;10.43;;
48791;SDS011;34587;48.816;9.420;2024-01-30T12:31:03;24.02;;;7.97;;
48791;SDS011;34587;48.816;9.420;2024-01-30T12:33:29;29.20;;;9.80;;
48791;SDS011;34587;48.816;9.420;2024-01-30T12:35:55;11.63;;;6.05;;
48791;SDS011;34587;48.816;9.420;2024-01-30T12:38:21;16.38;;;6.55;;
48791;SDS011;34587;48.816;9.420;2024-01-30T12:40:48;9.60;;;6.28;;
48791;SDS011;34587;48.816;9.420;2024-01-30T12:43:14;11.05;;;6.47;;
48791;SDS011;34587;48.816;9.420;2024-01-30T12:45:40;15.70;;;7.60;;
48791;SDS011;34587;48.816;9.420;2024-01-30T12:48:06;11.52;;;7.53;;
48791;SDS011;34587;48.816;9.420;2024-01-30T12:50:31;18.80;;;7.97;;
48791;SDS011;34587;48.816;9.420;2024-01-30T12:52:57;23.55;;;7.93;;
48791;SDS011;34587;48.816;9.420;2024-01-30T12:55:23;14.52;;;6.97;;
48791;SDS011;34587;48.816;9.420;2024-01-30T12:57:49;16.13;;;6.25;;
48791;SDS011;34587;48.816;9.420;2024-01-30T13:00:15;13.77;;;5.38;;
48791;SDS011;34587;48.816;9.420;2024-01-30T13:02:42;12.00;;;5.07;;
48791;SDS011;34587;48.816;9.420;2024-01-30T13:05:09;17.45;;;5.43;;
48791;SDS011;34587;48.816;9.420;2024-01-30T13:07:35;11.13;;;5.95;;
48791;SDS011;34587;48.816;9.420;2024-01-30T13:10:00;15.57;;;5.72;;
48791;SDS011;34587;48.816;9.420;2024-01-30T13:12:28;17.30;;;6.60;;
48791;SDS011;34587;48.816;9.420;2024-01-30T13:14:53;9.95;;;6.10;;
48791;SDS011;34587;48.816;9.420;2024-01-30T13:17:19;7.63;;;5.03;;
48791;SDS011;34587;48.816;9.420;2024-01-30T13:19:45;11.57;;;6.15;;
48791;SDS011;34587;48.816;9.420;2024-01-30T13:22:10;19.83;;;5.88;;
48791;SDS011;34587;48.816;9.420;2024-01-30T13:24:35;53.72;;;20.45;;
48791;SDS011;34587;48.816;9.420;2024-01-30T13:27:00;9.65;;;6.72;;
48791;SDS011;34587;48.816;9.420;2024-01-30T13:29:26;9.43;;;5.78;;
48791;SDS011;34587;48.816;9.420;2024-01-30T13:31:51;10.40;;;5.25;;
48791;SDS011;34587;48.816;9.420;2024-01-30T13:34:16;12.05;;;5.80;;
48791;SDS011;34587;48.816;9.420;2024-01-30T13:36:42;14.68;;;6.60;;
48791;SDS011;34587;48.816;9.420;2024-01-30T13:39:08;12.57;;;7.22;;
48791;SDS011;34587;48.816;9.420;2024-01-30T13:41:35;11.75;;;6.45;;
48791;SDS011;34587;48.816;9.420;2024-01-30T13:44:02;16.50;;;5.65;;
48791;SDS011;34587;48.816;9.420;2024-01-30T13:46:28;15.73;;;5.15;;
48791;SDS011;34587;48.816;9.420;2024-01-30T13:48:54;12.88;;;5.22;;
48791;SDS011;34587;48.816;9.420;2024-01-30T13:51:19;12.70;;;5.85;;
48791;SDS011;34587;48.816;9.420;2024-01-30T13:53:45;13.68;;;6.25;;
48791;SDS011;34587;48.816;9.420;2024-01-30T13:56:10;14.48;;;5.47;;
48791;SDS011;34587;48.816;9.420;2024-01-30T13:58:35;11.38;;;5.10;;
48791;SDS011;34587;48.816;9.420;2024-01-30T14:01:01;9.07;;;4.97;;
48791;SDS011;34587;48.816;9.420;2024-01-30T14:03:27;12.40;;;6.15;;
48791;SDS011;34587;48.816;9.420;2024-01-30T14:05:52;11.15;;;5.80;;
48791;SDS011;34587;48.816;9.420;2024-01-30T14:08:17;12.52;;;6.60;;
48791;SDS011;34587;48.816;9.420;2024-01-30T14:10:43;10.50;;;5.72;;
48791;SDS011;34587;48.816;9.420;2024-01-30T14:13:08;19.38;;;6.68;;
48791;SDS011;34587;48.816;9.420;2024-01-30T14:15:34;22.60;;;6.05;;
48791;SDS011;34587;48.816;9.420;2024-01-30T14:17:59;14.40;;;6.28;;
48791;SDS011;34587;48.816;9.420;2024-01-30T14:20:24;9.68;;;5.63;;
48791;SDS011;34587;48.816;9.420;2024-01-30T14:22:49;12.80;;;5.55;;
48791;SDS011;34587;48.816;9.420;2024-01-30T14:25:15;12.90;;;6.25;;
48791;SDS011;34587;48.816;9.420;2024-01-30T14:27:41;10.75;;;5.20;;
48791;SDS011;34587;48.816;9.420;2024-01-30T14:30:08;8.63;;;5.30;;
48791;SDS011;34587;48.816;9.420;2024-01-30T14:32:36;17.65;;;5.82;;
48791;SDS011;34587;48.816;9.420;2024-01-30T14:35:03;16.33;;;5.97;;
48791;SDS011;34587;48.816;9.420;2024-01-30T14:37:29;14.18;;;7.60;;
48791;SDS011;34587;48.816;9.420;2024-01-30T14:39:55;17.70;;;7.55;;
48791;SDS011;34587;48.816;9.420;2024-01-30T14:42:20;11.65;;;6.13;;
48791;SDS011;34587;48.816;9.420;2024-01-30T14:44:45;11.93;;;5.95;;
48791;SDS011;34587;48.816;9.420;2024-01-30T14:47:10;11.07;;;6.35;;
48791;SDS011;34587;48.816;9.420;2024-01-30T14:49:38;18.08;;;6.88;;
48791;SDS011;34587;48.816;9.420;2024-01-30T14:52:03;12.80;;;6.65;;
48791;SDS011;34587;48.816;9.420;2024-01-30T14:54:29;21.23;;;7.68;;
48791;SDS011;34587;48.816;9.420;2024-01-30T14:56:54;18.08;;;8.15;;
48791;SDS011;34587;48.816;9.420;2024-01-30T14:59:20;19.73;;;6.55;;
48791;SDS011;34587;48.816;9.420;2024-01-30T15:01:45;23.05;;;7.47;;
48791;SDS011;34587;48.816;9.420;2024-01-30T15:04:10;12.10;;;6.50;;
48791;SDS011;34587;48.816;9.420;2024-01-30T15:06:36;18.92;;;7.18;;
48791;SDS011;34587;48.816;9.420;2024-01-30T15:09:02;15.05;;;7.80;;
48791;SDS011;34587;48.816;9.420;2024-01-30T15:11:28;12.90;;;6.85;;
48791;SDS011;34587;48.816;9.420;2024-01-30T15:13:53;16.90;;;7.82;;
48791;SDS011;34587;48.816;9.420;2024-01-30T15:16:18;16.35;;;7.50;;
48791;SDS011;34587;48.816;9.420;2024-01-30T15:18:43;16.52;;;6.85;;
48791;SDS011;34587;48.816;9.420;2024-01-30T15:21:09;13.18;;;6.57;;
48791;SDS011;34587;48.816;9.420;2024-01-30T15:23:34;12.07;;;6.63;;
48791;SDS011;34587;48.816;9.420;2024-01-30T15:26:00;15.98;;;6.40;;
48791;SDS011;34587;48.816;9.420;2024-01-30T15:28:35;17.90;;;7.15;;
48791;SDS011;34587;48.816;9.420;2024-01-30T15:31:04;14.57;;;7.05;;
48791;SDS011;34587;48.816;9.420;2024-01-30T15:33:30;15.98;;;7.38;;
48791;SDS011;34587;48.816;9.420;2024-01-30T15:35:56;13.40;;;6.63;;
48791;SDS011;34587;48.816;9.420;2024-01-30T15:38:22;14.20;;;5.85;;
48791;SDS011;34587;48.816;9.420;2024-01-30T15:40:48;20.05;;;7.07;;
48791;SDS011;34587;48.816;9.420;2024-01-30T15:43:13;13.18;;;5.85;;
48791;SDS011;34587;48.816;9.420;2024-01-30T15:45:38;20.67;;;7.70;;
48791;SDS011;34587;48.816;9.420;2024-01-30T15:48:04;33.75;;;11.45;;
48791;SDS011;34587;48.816;9.420;2024-01-30T15:50:30;22.35;;;9.80;;
48791;SDS011;34587;48.816;9.420;2024-01-30T15:52:55;23.52;;;8.80;;
48791;SDS011;34587;48.816;9.420;2024-01-30T15:55:20;18.42;;;9.75;;
48791;SDS011;34587;48.816;9.420;2024-01-30T15:57:46;24.30;;;8.57;;
48791;SDS011;34587;48.816;9.420;2024-01-30T16:00:11;14.35;;;8.18;;
48791;SDS011;34587;48.816;9.420;2024-01-30T16:02:37;21.95;;;8.27;;
48791;SDS011;34587;48.816;9.420;2024-01-30T16:05:03;22.35;;;8.65;;
48791;SDS011;34587;48.816;9.420;2024-01-30T16:07:28;18.02;;;8.77;;
48791;SDS011;34587;48.816;9.420;2024-01-30T16:09:53;20.35;;;8.43;;
48791;SDS011;34587;48.816;9.420;2024-01-30T16:12:19;16.35;;;6.65;;
48791;SDS011;34587;48.816;9.420;2024-01-30T16:14:44;11.48;;;6.60;;
48791;SDS011;34587;48.816;9.420;2024-01-30T16:17:09;11.00;;;7.68;;
48791;SDS011;34587;48.816;9.420;2024-01-30T16:19:35;13.60;;;6.97;;
48791;SDS011;34587;48.816;9.420;2024-01-30T16:22:00;19.65;;;6.88;;
48791;SDS011;34587;48.816;9.420;2024-01-30T16:24:25;13.88;;;6.15;;
48791;SDS011;34587;48.816;9.420;2024-01-30T16:26:51;10.38;;;5.70;;
48791;SDS011;34587;48.816;9.420;2024-01-30T16:29:16;11.35;;;5.15;;
48791;SDS011;34587;48.816;9.420;2024-01-30T16:31:41;9.63;;;4.82;;
48791;SDS011;34587;48.816;9.420;2024-01-30T16:34:07;7.80;;;4.80;;
48791;SDS011;34587;48.816;9.420;2024-01-30T16:36:32;16.10;;;5.38;;
48791;SDS011;34587;48.816;9.420;2024-01-30T16:38:57;10.07;;;6.07;;
48791;SDS011;34587;48.816;9.420;2024-01-30T16:41:23;14.75;;;6.38;;
48791;SDS011;34587;48.816;9.420;2024-01-30T16:43:49;8.27;;;5.03;;
48791;SDS011;34587;48.816;9.420;2024-01-30T16:46:14;16.60;;;6.68;;
48791;SDS011;34587;48.816;9.420;2024-01-30T16:48:41;7.07;;;4.78;;
48791;SDS011;34587;48.816;9.420;2024-01-30T16:51:06;14.70;;;5.10;;
48791;SDS011;34587;48.816;9.420;2024-01-30T16:53:31;12.65;;;5.43;;
48791;SDS011;34587;48.816;9.420;2024-01-30T16:55:57;10.40;;;5.30;;
48791;SDS011;34587;48.816;9.420;2024-01-30T16:58:22;16.45;;;4.82;;
48791;SDS011;34587;48.816;9.420;2024-01-30T17:00:47;9.20;;;4.65;;
48791;SDS011;34587;48.816;9.420;2024-01-30T17:03:13;11.10;;;6.15;;
48791;SDS011;34587;48.816;9.420;2024-01-30T17:05:38;9.43;;;5.43;;
48791;SDS011;34587;48.816;9.420;2024-01-30T17:08:03;19.73;;;7.85;;
48791;SDS011;34587;48.816;9.420;2024-01-30T17:10:29;33.67;;;12.38;;
48791;SDS011;34587;48.816;9.420;2024-01-30T17:12:54;26.48;;;10.30;;
48791;SDS011;34587;48.816;9.420;2024-01-30T17:15:19;26.13;;;9.00;;
48791;SDS011;34587;48.816;9.420;2024-01-30T17:17:45;13.57;;;5.82;;
48791;SDS011;34587;48.816;9.420;2024-01-30T17:20:11;11.95;;;5.45;;
48791;SDS011;34587;48.816;9.420;2024-01-30T17:22:37;12.77;;;6.43;;
48791;SDS011;34587;48.816;9.420;2024-01-30T17:25:02;7.55;;;4.72;;
48791;SDS011;34587;48.816;9.420;2024-01-30T17:27:29;10.57;;;5.38;;
48791;SDS011;34587;48.816;9.420;2024-01-30T17:29:54;18.33;;;7.78;;
48791;SDS011;34587;48.816;9.420;2024-01-30T17:32:19;19.13;;;8.60;;
48791;SDS011;34587;48.816;9.420;2024-01-30T17:34:44;16.45;;;7.70;;
48791;SDS011;34587;48.816;9.420;2024-01-30T17:37:10;14.02;;;7.97;;
48791;SDS011;34587;48.816;9.420;2024-01-30T17:39:35;18.08;;;10.20;;
48791;SDS011;34587;48.816;9.420;2024-01-30T17:42:00;27.63;;;13.60;;
48791;SDS011;34587;48.816;9.420;2024-01-30T17:44:26;18.20;;;8.05;;
48791;SDS011;34587;48.816;9.420;2024-01-30T17:46:51;22.90;;;8.05;;
48791;SDS011;34587;48.816;9.420;2024-01-30T17:49:17;25.95;;;13.57;;
48791;SDS011;34587;48.816;9.420;2024-01-30T17:51:42;21.30;;;10.23;;
48791;SDS011;34587;48.816;9.420;2024-01-30T17:54:07;23.02;;;9.88;;
48791;SDS011;34587;48.816;9.420;2024-01-30T17:56:33;17.00;;;8.23;;
48791;SDS011;34587;48.816;9.420;2024-01-30T17:58:58;17.92;;;9.15;;
48791;SDS011;34587;48.816;9.420;2024-01-30T18:01:24;26.75;;;8.85;;
48791;SDS011;34587;48.816;9.420;2024-01-30T18:03:50;17.13;;;7.43;;
48791;SDS011;34587;48.816;9.420;2024-01-30T18:06:17;18.08;;;6.72;;
48791;SDS011;34587;48.816;9.420;2024-01-30T18:08:43;20.25;;;7.88;;
48791;SDS011;34587;48.816;9.420;2024-01-30T18:11:09;20.63;;;8.40;;
48791;SDS011;34587;48.816;9.420;2024-01-30T18:13:34;23.10;;;8.90;;
48791;SDS011;34587;48.816;9.420;2024-01-30T18:15:59;34.08;;;13.90;;
48791;SDS011;34587;48.816;9.420;2024-01-30T18:18:25;29.13;;;13.70;;
48791;SDS011;34587;48.816;9.420;2024-01-30T18:20:51;25.73;;;11.45;;
48791;SDS011;34587;48.816;9.420;2024-01-30T18:23:16;34.38;;;14.00;;
48791;SDS011;34587;48.816;9.420;2024-01-30T18:25:42;70.85;;;23.58;;
48791;SDS011;34587;48.816;9.420;2024-01-30T18:28:07;134.25;;;41.65;;
48791;SDS011;34587;48.816;9.420;2024-01-30T18:30:32;71.40;;;23.85;;
48791;SDS011;34587;48.816;9.420;2024-01-30T18:32:58;28.27;;;11.63;;
48791;SDS011;34587;48.816;9.420;2024-01-30T18:35:23;34.28;;;12.05;;
48791;SDS011;34587;48.816;9.420;2024-01-30T18:37:48;28.80;;;12.13;;
48791;SDS011;34587;48.816;9.420;2024-01-30T18:40:13;22.25;;;10.93;;
48791;SDS011;34587;48.816;9.420;2024-01-30T18:42:39;31.52;;;12.52;;